sensor_id;sensor_type;location;lat;lon;timestamp;temperature;humidity
19945;DHT22;10134;50.952;6.930;2023-07-31T00:02:11;18.40;99.90
19945;DHT22;10134;50.952;6.930;2023-07-31T00:04:38;18.40;99.90
19945;DHT22;10134;50.952;6.930;2023-07-31T00:07:06;18.40;99.90
19945;DHT22;10134;50.952;6.930;2023-07-31T00:09:33;18.40;99.90
19945;DHT22;10134;50.952;6.930;2023-07-31T00:12:01;18.40;99.90
19945;DHT22;10134;50.952;6.930;2023-07-31T00:14:28;18.40;99.90
19945;DHT22;10134;50.952;6.930;2023-07-31T00:16:55;18.40;99.90
19945;DHT22;10134;50.952;6.930;2023-07-31T00:19:23;18.40;99.90
19945;DHT22;10134;50.952;6.930;2023-07-31T00:21:50;18.50;99.90
19945;DHT22;10134;50.952;6.930;2023-07-31T00:24:17;18.50;99.90
19945;DHT22;10134;50.952;6.930;2023-07-31T00:26:44;18.50;99.90
19945;DHT22;10134;50.952;6.930;2023-07-31T00:29:12;18.50;99.90
19945;DHT22;10134;50.952;6.930;2023-07-31T00:31:39;18.50;99.90
19945;DHT22;10134;50.952;6.930;2023-07-31T00:34:06;18.50;99.90
19945;DHT22;10134;50.952;6.930;2023-07-31T00:36:35;18.50;99.90
19945;DHT22;10134;50.952;6.930;2023-07-31T00:39:03;18.50;99.90
19945;DHT22;10134;50.952;6.930;2023-07-31T00:41:31;18.50;99.90
19945;DHT22;10134;50.952;6.930;2023-07-31T00:43:59;18.50;99.90
19945;DHT22;10134;50.952;6.930;2023-07-31T00:46:27;18.50;99.90
19945;DHT22;10134;50.952;6.930;2023-07-31T00:48:56;18.50;99.90
19945;DHT22;10134;50.952;6.930;2023-07-31T00:51:24;18.50;99.90
19945;DHT22;10134;50.952;6.930;2023-07-31T00:53:53;18.50;99.90
19945;DHT22;10134;50.952;6.930;2023-07-31T00:56:22;18.50;99.90
19945;DHT22;10134;50.952;6.930;2023-07-31T00:58:49;18.50;99.90
19945;DHT22;10134;50.952;6.930;2023-07-31T01:01:16;18.50;99.90
19945;DHT22;10134;50.952;6.930;2023-07-31T01:03:44;18.50;99.90
19945;DHT22;10134;50.952;6.930;2023-07-31T01:06:19;18.50;99.90
19945;DHT22;10134;50.952;6.930;2023-07-31T01:09:16;18.50;99.90
19945;DHT22;10134;50.952;6.930;2023-07-31T01:11:53;18.50;99.90
19945;DHT22;10134;50.952;6.930;2023-07-31T01:14:23;18.50;99.90
19945;DHT22;10134;50.952;6.930;2023-07-31T01:16:50;18.50;99.90
19945;DHT22;10134;50.952;6.930;2023-07-31T01:19:21;18.40;99.90
19945;DHT22;10134;50.952;6.930;2023-07-31T01:27:28;18.50;99.90
19945;DHT22;10134;50.952;6.930;2023-07-31T01:30:05;18.50;99.90
19945;DHT22;10134;50.952;6.930;2023-07-31T01:32:40;18.50;99.90
19945;DHT22;10134;50.952;6.930;2023-07-31T01:35:08;18.50;99.90
19945;DHT22;10134;50.952;6.930;2023-07-31T01:37:36;18.50;99.90
19945;DHT22;10134;50.952;6.930;2023-07-31T01:40:04;18.50;99.90
19945;DHT22;10134;50.952;6.930;2023-07-31T01:42:32;18.50;99.90
19945;DHT22;10134;50.952;6.930;2023-07-31T01:44:59;18.50;99.90
19945;DHT22;10134;50.952;6.930;2023-07-31T01:47:26;18.50;99.90
19945;DHT22;10134;50.952;6.930;2023-07-31T01:49:54;18.50;99.90
19945;DHT22;10134;50.952;6.930;2023-07-31T01:52:21;18.50;99.90
19945;DHT22;10134;50.952;6.930;2023-07-31T01:54:48;18.50;99.90
19945;DHT22;10134;50.952;6.930;2023-07-31T01:57:16;18.50;99.90
19945;DHT22;10134;50.952;6.930;2023-07-31T01:59:43;18.50;99.90
19945;DHT22;10134;50.952;6.930;2023-07-31T02:02:10;18.50;99.90
19945;DHT22;10134;50.952;6.930;2023-07-31T02:04:38;18.50;99.90
19945;DHT22;10134;50.952;6.930;2023-07-31T02:07:08;18.50;99.90
19945;DHT22;10134;50.952;6.930;2023-07-31T02:09:35;18.50;99.90
19945;DHT22;10134;50.952;6.930;2023-07-31T02:12:02;18.60;99.90
19945;DHT22;10134;50.952;6.930;2023-07-31T02:14:30;18.60;99.90
19945;DHT22;10134;50.952;6.930;2023-07-31T02:16:57;18.60;99.90
19945;DHT22;10134;50.952;6.930;2023-07-31T02:19:25;18.60;99.90
19945;DHT22;10134;50.952;6.930;2023-07-31T02:21:52;18.60;99.90
19945;DHT22;10134;50.952;6.930;2023-07-31T02:24:20;18.60;99.90
19945;DHT22;10134;50.952;6.930;2023-07-31T02:26:47;18.60;99.90
19945;DHT22;10134;50.952;6.930;2023-07-31T02:29:14;18.60;99.90
19945;DHT22;10134;50.952;6.930;2023-07-31T02:31:41;18.60;99.90
19945;DHT22;10134;50.952;6.930;2023-07-31T02:34:09;18.60;99.90
19945;DHT22;10134;50.952;6.930;2023-07-31T02:36:36;18.60;99.90
19945;DHT22;10134;50.952;6.930;2023-07-31T02:39:04;18.70;99.90
19945;DHT22;10134;50.952;6.930;2023-07-31T02:41:31;18.70;99.90
19945;DHT22;10134;50.952;6.930;2023-07-31T02:43:58;18.70;99.90
19945;DHT22;10134;50.952;6.930;2023-07-31T02:46:26;18.70;99.90
19945;DHT22;10134;50.952;6.930;2023-07-31T02:48:54;18.70;99.90
19945;DHT22;10134;50.952;6.930;2023-07-31T02:51:22;18.70;99.90
19945;DHT22;10134;50.952;6.930;2023-07-31T02:53:49;18.70;99.90
19945;DHT22;10134;50.952;6.930;2023-07-31T02:56:17;18.70;99.90
19945;DHT22;10134;50.952;6.930;2023-07-31T02:58:44;18.70;99.90
19945;DHT22;10134;50.952;6.930;2023-07-31T03:01:11;18.70;99.90
19945;DHT22;10134;50.952;6.930;2023-07-31T03:03:38;18.70;99.90
19945;DHT22;10134;50.952;6.930;2023-07-31T03:06:06;18.70;99.90
19945;DHT22;10134;50.952;6.930;2023-07-31T03:08:33;18.70;99.90
19945;DHT22;10134;50.952;6.930;2023-07-31T03:11:00;18.70;99.90
19945;DHT22;10134;50.952;6.930;2023-07-31T03:13:28;18.70;99.90
19945;DHT22;10134;50.952;6.930;2023-07-31T03:15:55;18.80;99.90
19945;DHT22;10134;50.952;6.930;2023-07-31T03:18:23;18.80;99.90
19945;DHT22;10134;50.952;6.930;2023-07-31T03:20:50;18.80;99.90
19945;DHT22;10134;50.952;6.930;2023-07-31T03:23:17;18.80;99.90
19945;DHT22;10134;50.952;6.930;2023-07-31T03:26:01;18.80;99.90
19945;DHT22;10134;50.952;6.930;2023-07-31T03:28:29;18.80;99.90
19945;DHT22;10134;50.952;6.930;2023-07-31T03:30:56;18.80;99.90
19945;DHT22;10134;50.952;6.930;2023-07-31T03:33:23;18.80;99.90
19945;DHT22;10134;50.952;6.930;2023-07-31T03:35:51;18.80;99.90
19945;DHT22;10134;50.952;6.930;2023-07-31T03:38:18;18.80;99.90
19945;DHT22;10134;50.952;6.930;2023-07-31T03:40:46;18.80;99.90
19945;DHT22;10134;50.952;6.930;2023-07-31T03:43:13;18.80;99.90
19945;DHT22;10134;50.952;6.930;2023-07-31T03:45:40;18.80;99.90
19945;DHT22;10134;50.952;6.930;2023-07-31T03:48:08;18.80;99.90
19945;DHT22;10134;50.952;6.930;2023-07-31T03:50:35;18.80;99.90
19945;DHT22;10134;50.952;6.930;2023-07-31T03:53:03;18.80;99.90
19945;DHT22;10134;50.952;6.930;2023-07-31T03:55:30;18.80;99.90
19945;DHT22;10134;50.952;6.930;2023-07-31T03:57:57;18.70;99.90
19945;DHT22;10134;50.952;6.930;2023-07-31T04:00:26;18.70;99.90
19945;DHT22;10134;50.952;6.930;2023-07-31T04:02:53;18.70;99.90
19945;DHT22;10134;50.952;6.930;2023-07-31T04:05:20;18.70;99.90
19945;DHT22;10134;50.952;6.930;2023-07-31T04:07:48;18.70;99.90
19945;DHT22;10134;50.952;6.930;2023-07-31T04:10:15;18.70;99.90
19945;DHT22;10134;50.952;6.930;2023-07-31T04:12:42;18.70;99.90
19945;DHT22;10134;50.952;6.930;2023-07-31T04:15:10;18.80;99.90
19945;DHT22;10134;50.952;6.930;2023-07-31T04:17:37;18.80;99.90
19945;DHT22;10134;50.952;6.930;2023-07-31T04:20:05;18.80;99.90
19945;DHT22;10134;50.952;6.930;2023-07-31T04:22:32;18.80;99.90
19945;DHT22;10134;50.952;6.930;2023-07-31T04:25:00;18.80;99.90
19945;DHT22;10134;50.952;6.930;2023-07-31T04:27:27;18.80;99.90
19945;DHT22;10134;50.952;6.930;2023-07-31T04:29:54;18.80;99.90
19945;DHT22;10134;50.952;6.930;2023-07-31T04:32:22;18.80;99.90
19945;DHT22;10134;50.952;6.930;2023-07-31T04:34:49;18.90;99.90
19945;DHT22;10134;50.952;6.930;2023-07-31T04:37:16;18.90;99.90
19945;DHT22;10134;50.952;6.930;2023-07-31T04:39:43;18.90;99.90
19945;DHT22;10134;50.952;6.930;2023-07-31T04:42:11;18.90;99.90
19945;DHT22;10134;50.952;6.930;2023-07-31T04:44:38;18.90;99.90
19945;DHT22;10134;50.952;6.930;2023-07-31T04:47:05;18.90;99.90
19945;DHT22;10134;50.952;6.930;2023-07-31T04:49:33;18.90;99.90
19945;DHT22;10134;50.952;6.930;2023-07-31T04:52:00;18.90;99.90
19945;DHT22;10134;50.952;6.930;2023-07-31T04:54:27;18.90;99.90
19945;DHT22;10134;50.952;6.930;2023-07-31T04:56:55;18.90;99.90
19945;DHT22;10134;50.952;6.930;2023-07-31T04:59:22;18.90;99.90
19945;DHT22;10134;50.952;6.930;2023-07-31T05:01:50;18.90;99.90
19945;DHT22;10134;50.952;6.930;2023-07-31T05:04:17;18.90;99.90
19945;DHT22;10134;50.952;6.930;2023-07-31T05:06:45;18.90;99.90
19945;DHT22;10134;50.952;6.930;2023-07-31T05:09:12;19.00;99.90
19945;DHT22;10134;50.952;6.930;2023-07-31T05:11:40;19.00;99.90
19945;DHT22;10134;50.952;6.930;2023-07-31T05:14:10;19.00;99.90
19945;DHT22;10134;50.952;6.930;2023-07-31T05:16:37;19.00;99.90
19945;DHT22;10134;50.952;6.930;2023-07-31T05:19:05;19.00;99.90
19945;DHT22;10134;50.952;6.930;2023-07-31T05:21:32;19.10;99.90
19945;DHT22;10134;50.952;6.930;2023-07-31T05:24:00;19.10;99.90
19945;DHT22;10134;50.952;6.930;2023-07-31T05:26:27;19.10;99.90
19945;DHT22;10134;50.952;6.930;2023-07-31T05:28:55;19.20;99.90
19945;DHT22;10134;50.952;6.930;2023-07-31T05:31:22;19.20;99.90
19945;DHT22;10134;50.952;6.930;2023-07-31T05:33:50;19.20;99.90
19945;DHT22;10134;50.952;6.930;2023-07-31T05:36:17;19.20;99.90
19945;DHT22;10134;50.952;6.930;2023-07-31T05:38:45;19.30;99.90
19945;DHT22;10134;50.952;6.930;2023-07-31T05:41:12;19.30;99.90
19945;DHT22;10134;50.952;6.930;2023-07-31T05:43:40;19.30;99.90
19945;DHT22;10134;50.952;6.930;2023-07-31T05:46:07;19.30;99.90
19945;DHT22;10134;50.952;6.930;2023-07-31T05:48:36;19.30;99.90
19945;DHT22;10134;50.952;6.930;2023-07-31T05:51:03;19.30;99.90
19945;DHT22;10134;50.952;6.930;2023-07-31T05:53:31;19.30;99.90
19945;DHT22;10134;50.952;6.930;2023-07-31T05:55:58;19.30;99.90
19945;DHT22;10134;50.952;6.930;2023-07-31T05:58:25;19.30;99.90
19945;DHT22;10134;50.952;6.930;2023-07-31T06:00:53;19.30;99.90
19945;DHT22;10134;50.952;6.930;2023-07-31T06:03:20;19.30;99.90
19945;DHT22;10134;50.952;6.930;2023-07-31T06:05:47;19.30;99.90
19945;DHT22;10134;50.952;6.930;2023-07-31T06:08:14;19.30;99.90
19945;DHT22;10134;50.952;6.930;2023-07-31T06:10:42;19.30;99.90
19945;DHT22;10134;50.952;6.930;2023-07-31T06:13:09;19.30;99.90
19945;DHT22;10134;50.952;6.930;2023-07-31T06:15:36;19.30;99.90
19945;DHT22;10134;50.952;6.930;2023-07-31T06:18:03;19.40;99.90
19945;DHT22;10134;50.952;6.930;2023-07-31T06:20:34;19.40;99.90
19945;DHT22;10134;50.952;6.930;2023-07-31T06:23:02;19.30;99.90
19945;DHT22;10134;50.952;6.930;2023-07-31T06:25:30;19.30;99.90
19945;DHT22;10134;50.952;6.930;2023-07-31T06:27:58;19.40;99.90
19945;DHT22;10134;50.952;6.930;2023-07-31T06:30:25;19.40;99.90
19945;DHT22;10134;50.952;6.930;2023-07-31T06:32:52;19.40;99.90
19945;DHT22;10134;50.952;6.930;2023-07-31T06:35:20;19.30;99.90
19945;DHT22;10134;50.952;6.930;2023-07-31T06:37:47;19.40;99.90
19945;DHT22;10134;50.952;6.930;2023-07-31T06:40:14;19.30;99.90
19945;DHT22;10134;50.952;6.930;2023-07-31T06:42:42;19.40;99.90
19945;DHT22;10134;50.952;6.930;2023-07-31T06:45:09;19.40;99.90
19945;DHT22;10134;50.952;6.930;2023-07-31T06:47:37;19.40;99.90
19945;DHT22;10134;50.952;6.930;2023-07-31T06:50:05;19.40;99.90
19945;DHT22;10134;50.952;6.930;2023-07-31T06:52:32;19.40;99.90
19945;DHT22;10134;50.952;6.930;2023-07-31T06:55:15;19.50;99.90
19945;DHT22;10134;50.952;6.930;2023-07-31T06:57:45;19.50;99.90
19945;DHT22;10134;50.952;6.930;2023-07-31T07:00:13;19.50;99.90
19945;DHT22;10134;50.952;6.930;2023-07-31T07:02:40;19.50;99.90
19945;DHT22;10134;50.952;6.930;2023-07-31T07:05:08;19.60;99.90
19945;DHT22;10134;50.952;6.930;2023-07-31T07:07:36;19.60;99.90
19945;DHT22;10134;50.952;6.930;2023-07-31T07:10:03;19.60;99.90
19945;DHT22;10134;50.952;6.930;2023-07-31T07:12:32;19.70;99.90
19945;DHT22;10134;50.952;6.930;2023-07-31T07:15:00;19.70;99.90
19945;DHT22;10134;50.952;6.930;2023-07-31T07:17:29;19.70;99.90
19945;DHT22;10134;50.952;6.930;2023-07-31T07:20:00;19.70;99.90
19945;DHT22;10134;50.952;6.930;2023-07-31T07:22:28;19.80;99.90
19945;DHT22;10134;50.952;6.930;2023-07-31T07:24:56;19.80;99.90
19945;DHT22;10134;50.952;6.930;2023-07-31T07:27:24;19.80;99.90
19945;DHT22;10134;50.952;6.930;2023-07-31T07:29:51;19.80;99.90
19945;DHT22;10134;50.952;6.930;2023-07-31T07:32:20;19.80;99.90
19945;DHT22;10134;50.952;6.930;2023-07-31T07:34:48;19.80;99.90
19945;DHT22;10134;50.952;6.930;2023-07-31T07:37:16;19.80;99.90
19945;DHT22;10134;50.952;6.930;2023-07-31T07:39:44;19.80;99.90
19945;DHT22;10134;50.952;6.930;2023-07-31T07:42:11;19.80;99.90
19945;DHT22;10134;50.952;6.930;2023-07-31T07:44:38;19.80;99.90
19945;DHT22;10134;50.952;6.930;2023-07-31T07:47:06;19.80;99.90
19945;DHT22;10134;50.952;6.930;2023-07-31T07:49:34;19.80;99.90
19945;DHT22;10134;50.952;6.930;2023-07-31T07:52:02;19.80;99.90
19945;DHT22;10134;50.952;6.930;2023-07-31T07:54:30;19.80;99.90
19945;DHT22;10134;50.952;6.930;2023-07-31T07:56:58;19.80;99.90
19945;DHT22;10134;50.952;6.930;2023-07-31T07:59:26;19.80;99.90
19945;DHT22;10134;50.952;6.930;2023-07-31T08:01:53;19.80;99.90
19945;DHT22;10134;50.952;6.930;2023-07-31T08:04:20;19.80;99.90
19945;DHT22;10134;50.952;6.930;2023-07-31T08:06:48;19.80;99.90
19945;DHT22;10134;50.952;6.930;2023-07-31T08:09:15;19.70;99.90
19945;DHT22;10134;50.952;6.930;2023-07-31T08:11:42;19.70;99.90
19945;DHT22;10134;50.952;6.930;2023-07-31T08:14:10;19.70;99.90
19945;DHT22;10134;50.952;6.930;2023-07-31T08:16:37;19.70;99.90
19945;DHT22;10134;50.952;6.930;2023-07-31T08:19:05;19.70;99.90
19945;DHT22;10134;50.952;6.930;2023-07-31T08:21:32;19.70;99.90
19945;DHT22;10134;50.952;6.930;2023-07-31T08:24:00;19.60;99.90
19945;DHT22;10134;50.952;6.930;2023-07-31T08:26:27;19.60;99.90
19945;DHT22;10134;50.952;6.930;2023-07-31T08:28:54;19.70;99.90
19945;DHT22;10134;50.952;6.930;2023-07-31T08:31:22;19.70;99.90
19945;DHT22;10134;50.952;6.930;2023-07-31T08:33:49;19.70;99.90
19945;DHT22;10134;50.952;6.930;2023-07-31T08:36:16;19.70;99.90
19945;DHT22;10134;50.952;6.930;2023-07-31T08:38:45;19.70;99.90
19945;DHT22;10134;50.952;6.930;2023-07-31T08:41:12;19.80;99.90
19945;DHT22;10134;50.952;6.930;2023-07-31T08:43:40;19.80;99.90
19945;DHT22;10134;50.952;6.930;2023-07-31T08:46:09;19.80;99.90
19945;DHT22;10134;50.952;6.930;2023-07-31T08:48:37;19.80;99.90
19945;DHT22;10134;50.952;6.930;2023-07-31T08:51:06;19.80;99.90
19945;DHT22;10134;50.952;6.930;2023-07-31T08:53:34;19.80;99.90
19945;DHT22;10134;50.952;6.930;2023-07-31T08:56:02;19.80;99.90
19945;DHT22;10134;50.952;6.930;2023-07-31T08:58:31;19.80;99.90
19945;DHT22;10134;50.952;6.930;2023-07-31T09:01:01;19.80;99.90
19945;DHT22;10134;50.952;6.930;2023-07-31T09:03:29;19.80;99.90
19945;DHT22;10134;50.952;6.930;2023-07-31T09:06:00;19.80;99.90
19945;DHT22;10134;50.952;6.930;2023-07-31T09:08:30;19.80;99.90
19945;DHT22;10134;50.952;6.930;2023-07-31T09:11:01;19.80;99.90
19945;DHT22;10134;50.952;6.930;2023-07-31T09:13:33;19.90;99.90
19945;DHT22;10134;50.952;6.930;2023-07-31T09:16:00;19.90;99.90
19945;DHT22;10134;50.952;6.930;2023-07-31T09:18:28;19.90;99.90
19945;DHT22;10134;50.952;6.930;2023-07-31T09:21:05;19.90;99.90
19945;DHT22;10134;50.952;6.930;2023-07-31T09:23:46;19.90;99.90
19945;DHT22;10134;50.952;6.930;2023-07-31T09:26:34;19.90;99.90
19945;DHT22;10134;50.952;6.930;2023-07-31T09:29:05;19.90;99.90
19945;DHT22;10134;50.952;6.930;2023-07-31T09:31:42;19.90;99.90
19945;DHT22;10134;50.952;6.930;2023-07-31T09:34:09;19.90;99.90
19945;DHT22;10134;50.952;6.930;2023-07-31T09:39:10;20.00;99.90
19945;DHT22;10134;50.952;6.930;2023-07-31T09:41:39;20.00;99.90
19945;DHT22;10134;50.952;6.930;2023-07-31T09:44:07;20.00;99.90
19945;DHT22;10134;50.952;6.930;2023-07-31T09:46:36;20.00;99.90
19945;DHT22;10134;50.952;6.930;2023-07-31T09:49:13;20.10;99.90
19945;DHT22;10134;50.952;6.930;2023-07-31T09:51:41;20.10;99.90
19945;DHT22;10134;50.952;6.930;2023-07-31T09:54:16;20.20;99.90
19945;DHT22;10134;50.952;6.930;2023-07-31T09:56:47;20.20;99.90
19945;DHT22;10134;50.952;6.930;2023-07-31T09:59:17;20.20;99.90
19945;DHT22;10134;50.952;6.930;2023-07-31T10:01:50;20.30;99.90
19945;DHT22;10134;50.952;6.930;2023-07-31T10:04:18;20.30;99.90
19945;DHT22;10134;50.952;6.930;2023-07-31T10:06:53;20.30;99.90
19945;DHT22;10134;50.952;6.930;2023-07-31T10:09:21;20.40;99.90
19945;DHT22;10134;50.952;6.930;2023-07-31T10:11:56;20.40;99.90
19945;DHT22;10134;50.952;6.930;2023-07-31T10:14:26;20.40;99.90
19945;DHT22;10134;50.952;6.930;2023-07-31T10:16:55;20.40;99.90
19945;DHT22;10134;50.952;6.930;2023-07-31T10:19:23;20.50;99.90
19945;DHT22;10134;50.952;6.930;2023-07-31T10:21:50;20.50;99.90
19945;DHT22;10134;50.952;6.930;2023-07-31T10:24:18;20.50;99.90
19945;DHT22;10134;50.952;6.930;2023-07-31T10:26:47;20.50;99.90
19945;DHT22;10134;50.952;6.930;2023-07-31T10:29:16;20.50;99.90
19945;DHT22;10134;50.952;6.930;2023-07-31T10:31:45;20.50;99.90
19945;DHT22;10134;50.952;6.930;2023-07-31T10:34:14;20.60;99.90
19945;DHT22;10134;50.952;6.930;2023-07-31T10:36:42;20.60;99.90
19945;DHT22;10134;50.952;6.930;2023-07-31T10:39:35;20.60;99.90
19945;DHT22;10134;50.952;6.930;2023-07-31T10:42:11;20.60;99.90
19945;DHT22;10134;50.952;6.930;2023-07-31T10:44:43;20.70;99.90
19945;DHT22;10134;50.952;6.930;2023-07-31T10:47:10;20.70;99.90
19945;DHT22;10134;50.952;6.930;2023-07-31T10:49:45;20.70;99.90
19945;DHT22;10134;50.952;6.930;2023-07-31T10:52:13;20.70;99.90
19945;DHT22;10134;50.952;6.930;2023-07-31T10:54:40;20.70;99.90
19945;DHT22;10134;50.952;6.930;2023-07-31T10:57:21;20.70;99.90
19945;DHT22;10134;50.952;6.930;2023-07-31T10:59:49;20.80;99.90
19945;DHT22;10134;50.952;6.930;2023-07-31T11:02:26;20.80;99.90
19945;DHT22;10134;50.952;6.930;2023-07-31T11:05:08;20.80;99.90
19945;DHT22;10134;50.952;6.930;2023-07-31T11:07:47;20.90;99.90
19945;DHT22;10134;50.952;6.930;2023-07-31T11:10:18;20.90;99.90
19945;DHT22;10134;50.952;6.930;2023-07-31T11:12:46;20.80;99.90
19945;DHT22;10134;50.952;6.930;2023-07-31T11:15:14;20.80;99.90
19945;DHT22;10134;50.952;6.930;2023-07-31T11:17:41;20.80;99.90
19945;DHT22;10134;50.952;6.930;2023-07-31T11:20:09;20.80;99.90
19945;DHT22;10134;50.952;6.930;2023-07-31T11:22:36;20.80;99.90
19945;DHT22;10134;50.952;6.930;2023-07-31T11:25:04;20.80;99.90
19945;DHT22;10134;50.952;6.930;2023-07-31T11:27:39;20.80;99.90
19945;DHT22;10134;50.952;6.930;2023-07-31T11:30:07;20.90;99.90
19945;DHT22;10134;50.952;6.930;2023-07-31T11:32:36;20.90;99.90
19945;DHT22;10134;50.952;6.930;2023-07-31T11:35:04;21.00;99.90
19945;DHT22;10134;50.952;6.930;2023-07-31T11:37:42;21.00;99.90
19945;DHT22;10134;50.952;6.930;2023-07-31T11:40:10;21.10;99.90
19945;DHT22;10134;50.952;6.930;2023-07-31T11:42:38;21.10;99.90
19945;DHT22;10134;50.952;6.930;2023-07-31T11:45:09;21.20;99.90
19945;DHT22;10134;50.952;6.930;2023-07-31T11:47:37;21.20;99.90
19945;DHT22;10134;50.952;6.930;2023-07-31T11:50:06;21.30;99.90
19945;DHT22;10134;50.952;6.930;2023-07-31T11:52:40;21.40;99.90
19945;DHT22;10134;50.952;6.930;2023-07-31T11:55:08;21.40;99.90
19945;DHT22;10134;50.952;6.930;2023-07-31T11:57:39;21.40;99.90
19945;DHT22;10134;50.952;6.930;2023-07-31T12:00:09;21.50;99.90
19945;DHT22;10134;50.952;6.930;2023-07-31T12:02:38;21.50;99.90
19945;DHT22;10134;50.952;6.930;2023-07-31T12:05:11;21.40;99.90
19945;DHT22;10134;50.952;6.930;2023-07-31T12:07:54;21.40;99.90
19945;DHT22;10134;50.952;6.930;2023-07-31T12:10:30;21.40;99.90
19945;DHT22;10134;50.952;6.930;2023-07-31T12:15:39;21.30;99.90
19945;DHT22;10134;50.952;6.930;2023-07-31T12:18:11;21.30;99.90
19945;DHT22;10134;50.952;6.930;2023-07-31T12:20:47;21.30;99.90
19945;DHT22;10134;50.952;6.930;2023-07-31T12:23:26;21.30;99.90
19945;DHT22;10134;50.952;6.930;2023-07-31T12:26:07;21.30;99.90
19945;DHT22;10134;50.952;6.930;2023-07-31T12:28:36;21.30;99.90
19945;DHT22;10134;50.952;6.930;2023-07-31T12:31:05;21.30;99.90
19945;DHT22;10134;50.952;6.930;2023-07-31T12:33:35;21.30;99.90
19945;DHT22;10134;50.952;6.930;2023-07-31T12:36:06;21.30;99.90
19945;DHT22;10134;50.952;6.930;2023-07-31T12:38:33;21.20;99.90
19945;DHT22;10134;50.952;6.930;2023-07-31T12:41:00;21.30;99.90
19945;DHT22;10134;50.952;6.930;2023-07-31T12:43:28;21.30;99.90
19945;DHT22;10134;50.952;6.930;2023-07-31T12:45:55;21.30;99.90
19945;DHT22;10134;50.952;6.930;2023-07-31T12:48:26;21.30;99.90
19945;DHT22;10134;50.952;6.930;2023-07-31T12:50:53;21.30;99.90
19945;DHT22;10134;50.952;6.930;2023-07-31T12:53:20;21.30;99.90
19945;DHT22;10134;50.952;6.930;2023-07-31T12:55:48;21.30;99.90
19945;DHT22;10134;50.952;6.930;2023-07-31T12:58:15;21.40;99.90
19945;DHT22;10134;50.952;6.930;2023-07-31T13:00:42;21.40;99.90
19945;DHT22;10134;50.952;6.930;2023-07-31T13:03:09;21.40;99.90
19945;DHT22;10134;50.952;6.930;2023-07-31T13:05:38;21.40;99.90
19945;DHT22;10134;50.952;6.930;2023-07-31T13:08:05;21.40;99.90
19945;DHT22;10134;50.952;6.930;2023-07-31T13:10:32;21.40;99.90
19945;DHT22;10134;50.952;6.930;2023-07-31T13:13:00;21.50;99.90
19945;DHT22;10134;50.952;6.930;2023-07-31T13:15:27;21.50;99.90
19945;DHT22;10134;50.952;6.930;2023-07-31T13:17:54;21.50;99.90
19945;DHT22;10134;50.952;6.930;2023-07-31T13:20:22;21.60;99.90
19945;DHT22;10134;50.952;6.930;2023-07-31T13:22:49;21.60;99.90
19945;DHT22;10134;50.952;6.930;2023-07-31T13:25:16;21.60;99.90
19945;DHT22;10134;50.952;6.930;2023-07-31T13:27:44;21.60;99.90
19945;DHT22;10134;50.952;6.930;2023-07-31T13:30:11;21.60;99.90
19945;DHT22;10134;50.952;6.930;2023-07-31T13:32:39;21.60;99.90
19945;DHT22;10134;50.952;6.930;2023-07-31T13:35:07;21.70;99.90
19945;DHT22;10134;50.952;6.930;2023-07-31T13:37:35;21.70;99.90
19945;DHT22;10134;50.952;6.930;2023-07-31T13:40:03;21.80;99.90
19945;DHT22;10134;50.952;6.930;2023-07-31T13:42:32;21.80;99.90
19945;DHT22;10134;50.952;6.930;2023-07-31T13:45:00;21.80;99.90
19945;DHT22;10134;50.952;6.930;2023-07-31T13:47:29;21.90;99.90
19945;DHT22;10134;50.952;6.930;2023-07-31T13:49:58;21.90;99.90
19945;DHT22;10134;50.952;6.930;2023-07-31T13:52:25;21.90;99.90
19945;DHT22;10134;50.952;6.930;2023-07-31T13:54:52;22.00;99.90
19945;DHT22;10134;50.952;6.930;2023-07-31T13:57:20;22.10;99.90
19945;DHT22;10134;50.952;6.930;2023-07-31T13:59:47;22.10;99.90
19945;DHT22;10134;50.952;6.930;2023-07-31T14:02:14;22.20;99.90
19945;DHT22;10134;50.952;6.930;2023-07-31T14:04:42;22.30;99.90
19945;DHT22;10134;50.952;6.930;2023-07-31T14:07:09;22.50;99.90
19945;DHT22;10134;50.952;6.930;2023-07-31T14:09:37;22.50;99.90
19945;DHT22;10134;50.952;6.930;2023-07-31T14:12:04;22.60;99.90
19945;DHT22;10134;50.952;6.930;2023-07-31T14:14:32;22.70;99.90
19945;DHT22;10134;50.952;6.930;2023-07-31T14:17:01;22.70;99.90
19945;DHT22;10134;50.952;6.930;2023-07-31T14:19:29;22.80;99.90
19945;DHT22;10134;50.952;6.930;2023-07-31T14:21:58;22.90;99.90
19945;DHT22;10134;50.952;6.930;2023-07-31T14:24:38;22.90;99.90
19945;DHT22;10134;50.952;6.930;2023-07-31T14:27:05;22.90;99.90
19945;DHT22;10134;50.952;6.930;2023-07-31T14:29:33;22.90;99.90
19945;DHT22;10134;50.952;6.930;2023-07-31T14:32:00;22.80;99.90
19945;DHT22;10134;50.952;6.930;2023-07-31T14:34:27;22.80;99.90
19945;DHT22;10134;50.952;6.930;2023-07-31T14:36:55;22.70;99.90
19945;DHT22;10134;50.952;6.930;2023-07-31T14:39:23;22.60;99.90
19945;DHT22;10134;50.952;6.930;2023-07-31T14:41:50;22.60;99.90
19945;DHT22;10134;50.952;6.930;2023-07-31T14:44:17;22.50;99.90
19945;DHT22;10134;50.952;6.930;2023-07-31T14:46:45;22.40;99.90
19945;DHT22;10134;50.952;6.930;2023-07-31T14:49:12;22.40;99.90
19945;DHT22;10134;50.952;6.930;2023-07-31T14:51:40;22.30;99.90
19945;DHT22;10134;50.952;6.930;2023-07-31T14:54:07;22.30;99.90
19945;DHT22;10134;50.952;6.930;2023-07-31T14:56:35;22.20;99.90
19945;DHT22;10134;50.952;6.930;2023-07-31T14:59:02;22.20;99.90
19945;DHT22;10134;50.952;6.930;2023-07-31T15:01:29;22.10;99.90
19945;DHT22;10134;50.952;6.930;2023-07-31T15:03:57;22.10;99.90
19945;DHT22;10134;50.952;6.930;2023-07-31T15:06:24;22.10;99.90
19945;DHT22;10134;50.952;6.930;2023-07-31T15:08:55;22.00;99.90
19945;DHT22;10134;50.952;6.930;2023-07-31T15:11:22;21.90;99.90
19945;DHT22;10134;50.952;6.930;2023-07-31T15:13:49;21.90;99.90
19945;DHT22;10134;50.952;6.930;2023-07-31T15:16:17;21.90;99.90
19945;DHT22;10134;50.952;6.930;2023-07-31T15:18:44;21.80;99.90
19945;DHT22;10134;50.952;6.930;2023-07-31T15:21:11;21.80;99.90
19945;DHT22;10134;50.952;6.930;2023-07-31T15:23:39;21.80;99.90
19945;DHT22;10134;50.952;6.930;2023-07-31T15:26:06;21.80;99.90
19945;DHT22;10134;50.952;6.930;2023-07-31T15:28:33;21.80;99.90
19945;DHT22;10134;50.952;6.930;2023-07-31T15:31:02;21.70;99.90
19945;DHT22;10134;50.952;6.930;2023-07-31T15:33:30;21.70;99.90
19945;DHT22;10134;50.952;6.930;2023-07-31T15:35:57;21.70;99.90
19945;DHT22;10134;50.952;6.930;2023-07-31T15:38:24;21.70;99.90
19945;DHT22;10134;50.952;6.930;2023-07-31T15:40:52;21.70;99.90
19945;DHT22;10134;50.952;6.930;2023-07-31T15:43:21;21.60;99.90
19945;DHT22;10134;50.952;6.930;2023-07-31T15:45:48;21.60;99.90
19945;DHT22;10134;50.952;6.930;2023-07-31T15:48:15;21.60;99.90
19945;DHT22;10134;50.952;6.930;2023-07-31T15:50:43;21.60;99.90